createdAt,value
2022-11-13T00:00:48.719Z,4.00
2022-11-13T00:06:01.110Z,3.80
2022-11-13T00:11:05.823Z,3.80
2022-11-13T00:16:11.645Z,3.80
2022-11-13T00:21:17.380Z,4.00
2022-11-13T00:26:21.691Z,4.10
2022-11-13T00:31:24.619Z,4.10
2022-11-13T00:36:29.735Z,4.00
2022-11-13T00:41:32.491Z,3.90
2022-11-13T00:46:35.293Z,3.60
2022-11-13T00:51:39.361Z,3.50
2022-11-13T00:56:42.119Z,3.60
2022-11-13T01:01:44.956Z,3.60
2022-11-13T01:06:49.137Z,3.50
2022-11-13T01:11:51.909Z,3.40
2022-11-13T01:16:54.661Z,3.20
2022-11-13T01:21:58.801Z,3.20
2022-11-13T01:27:01.521Z,3.00
2022-11-13T01:32:04.441Z,2.90
2022-11-13T01:37:08.511Z,3.00
2022-11-13T01:42:11.255Z,3.00
2022-11-13T01:47:14.027Z,2.90
2022-11-13T01:52:21.350Z,2.70
2022-11-13T01:57:24.315Z,2.60
2022-11-13T02:02:31.017Z,2.40
2022-11-13T02:07:35.185Z,2.30
2022-11-13T02:12:41.724Z,2.10
2022-11-13T02:17:48.061Z,2.20
2022-11-13T02:22:56.460Z,2.10
2022-11-13T02:28:00.669Z,2.00
2022-11-13T02:33:03.586Z,2.30
2022-11-13T02:38:07.066Z,2.10
2022-11-13T02:43:11.250Z,2.10
2022-11-13T02:48:14.062Z,2.00
2022-11-13T02:53:17.137Z,1.90
2022-11-13T02:58:22.533Z,1.80
2022-11-13T03:03:55.925Z,1.60
2022-11-13T03:08:48.134Z,1.40
2022-11-13T03:13:52.165Z,1.20
2022-11-13T03:18:56.371Z,1.20
2022-11-13T03:23:59.288Z,1.10
2022-11-13T03:29:03.719Z,1.00
2022-11-13T03:34:06.542Z,1.00
2022-11-13T03:39:09.344Z,0.90
2022-11-13T03:44:13.402Z,0.90
2022-11-13T03:49:16.145Z,0.90
2022-11-13T03:54:19.018Z,0.80
2022-11-13T03:59:23.131Z,0.80
2022-11-13T04:04:25.872Z,0.80
2022-11-13T04:09:28.651Z,0.70
2022-11-13T04:14:32.780Z,0.60
2022-11-13T04:19:35.599Z,0.60
2022-11-13T04:24:38.386Z,0.70
2022-11-13T04:29:42.488Z,0.70
2022-11-13T04:34:45.211Z,1.00
2022-11-13T04:39:47.962Z,1.50
2022-11-13T04:44:52.030Z,1.80
2022-11-13T04:49:54.770Z,1.80
2022-11-13T04:54:57.677Z,1.80
2022-11-13T05:00:02.041Z,1.80
2022-11-13T05:05:05.662Z,1.90
2022-11-13T05:10:09.039Z,2.10
2022-11-13T05:15:13.205Z,2.30
2022-11-13T05:20:16.257Z,2.30
2022-11-13T05:25:19.027Z,2.40
2022-11-13T05:30:23.118Z,2.40
2022-11-13T05:35:25.881Z,2.50
2022-11-13T05:40:28.915Z,2.50
2022-11-13T05:45:32.971Z,2.50
2022-11-13T05:50:35.722Z,2.50
2022-11-13T05:55:38.419Z,2.40
2022-11-13T06:00:42.517Z,2.60
2022-11-13T06:05:45.282Z,2.50
2022-11-13T06:10:48.191Z,2.40
2022-11-13T06:15:52.286Z,2.50
2022-11-13T06:20:55.024Z,2.30
2022-11-13T06:26:01.915Z,1.90
2022-11-13T06:31:07.689Z,1.70
2022-11-13T06:36:12.923Z,1.60
2022-11-13T06:41:17.471Z,1.40
2022-11-13T06:46:23.778Z,1.40
2022-11-13T06:51:28.251Z,1.60
2022-11-13T06:56:31.025Z,2.10
2022-11-13T07:01:35.099Z,2.00
2022-11-13T07:06:40.507Z,2.10
2022-11-13T07:11:43.424Z,2.80
2022-11-13T07:17:08.097Z,3.80
2022-11-13T07:22:10.264Z,5.10
2022-11-13T07:27:13.009Z,6.50
2022-11-13T07:32:17.138Z,7.80
2022-11-13T07:37:20.322Z,9.80
2022-11-13T07:42:23.025Z,11.50
2022-11-13T07:47:27.146Z,12.60
2022-11-13T07:52:29.866Z,12.00
2022-11-13T07:57:32.617Z,13.50
2022-11-13T08:02:36.759Z,17.10
2022-11-13T08:07:39.518Z,17.00
2022-11-13T08:12:42.297Z,15.90
2022-11-13T08:17:46.377Z,14.50
2022-11-13T08:22:49.126Z,16.20
2022-11-13T08:27:53.897Z,18.80
2022-11-13T08:32:57.981Z,19.20
2022-11-13T08:38:03.483Z,20.00
2022-11-13T08:43:06.430Z,21.70
2022-11-13T08:48:10.469Z,21.90
2022-11-13T08:53:13.222Z,17.50
2022-11-13T08:58:16.373Z,16.40
2022-11-13T09:03:20.477Z,19.20
2022-11-13T09:08:23.233Z,20.30
2022-11-13T09:13:25.966Z,19.90
2022-11-13T09:18:30.798Z,20.40
2022-11-13T09:23:34.554Z,22.30
2022-11-13T09:28:37.654Z,22.20
2022-11-13T09:33:41.760Z,22.80
2022-11-13T09:38:44.631Z,24.30
2022-11-13T09:43:53.026Z,26.20
2022-11-13T09:49:04.809Z,28.10
2022-11-13T09:54:14.946Z,31.40
2022-11-13T09:59:25.850Z,33.30
2022-11-13T10:04:41.828Z,36.10
2022-11-13T10:09:59.009Z,35.20
2022-11-13T10:15:04.321Z,36.40
2022-11-13T10:20:15.253Z,38.40
2022-11-13T10:25:20.534Z,37.60
2022-11-13T10:30:23.593Z,38.90
2022-11-13T10:35:47.910Z,35.60
2022-11-13T10:40:51.050Z,29.50
2022-11-13T10:45:58.013Z,27.90
2022-11-13T10:51:05.149Z,27.50
2022-11-13T10:56:25.983Z,27.60
2022-11-13T11:01:29.098Z,29.80
2022-11-13T11:12:18.902Z,26.60
2022-11-13T11:17:25.266Z,24.80
2022-11-13T11:22:34.067Z,24.30
2022-11-13T11:27:42.143Z,22.10
2022-11-13T11:32:52.019Z,21.60
2022-11-13T11:38:02.268Z,22.80
2022-11-13T11:43:13.612Z,24.10
2022-11-13T11:48:18.702Z,23.50
2022-11-13T11:53:38.107Z,21.30
2022-11-13T11:59:03.943Z,21.60
2022-11-13T12:04:24.225Z,21.30
2022-11-13T12:09:31.398Z,20.50
2022-11-13T12:14:42.276Z,20.70
2022-11-13T12:19:54.576Z,19.90
2022-11-13T12:25:13.498Z,22.50
2022-11-13T12:30:19.845Z,19.20
2022-11-13T12:35:25.253Z,19.10
2022-11-13T12:40:41.243Z,20.60
2022-11-13T12:45:52.991Z,21.40
2022-11-13T12:51:00.563Z,20.80
2022-11-13T12:56:05.206Z,19.80
2022-11-13T13:01:19.435Z,19.50
2022-11-13T13:06:40.769Z,20.50
2022-11-13T13:11:54.894Z,21.40
2022-11-13T13:17:07.163Z,20.50
2022-11-13T13:22:11.382Z,21.10
2022-11-13T13:27:24.903Z,21.90
2022-11-13T13:32:34.753Z,16.80
2022-11-13T13:37:48.221Z,13.90
2022-11-13T13:43:07.661Z,12.70
2022-11-13T13:48:12.607Z,12.10
2022-11-13T13:53:19.668Z,11.50
2022-11-13T13:58:32.367Z,11.20
2022-11-13T14:03:35.243Z,10.90
2022-11-13T14:08:38.013Z,10.80
2022-11-13T14:13:42.081Z,10.70
2022-11-13T14:18:44.974Z,10.60
2022-11-13T14:23:51.313Z,10.50
2022-11-13T14:28:57.068Z,10.40
2022-11-13T14:34:03.069Z,10.30
2022-11-13T14:39:06.093Z,10.20
2022-11-13T14:44:12.427Z,10.10
2022-11-13T15:28:44.969Z,8.70
2022-11-13T15:33:48.637Z,8.50
2022-11-13T15:38:51.408Z,8.40
2022-11-13T15:43:56.762Z,8.40
2022-11-13T15:48:59.517Z,8.30
2022-11-13T15:54:06.125Z,8.30
2022-11-13T15:59:12.797Z,8.10
2022-11-13T16:04:16.405Z,8.10
2022-11-13T16:09:19.153Z,8.10
2022-11-13T16:14:25.028Z,7.90
2022-11-13T16:19:28.067Z,7.90
2022-11-13T16:24:30.805Z,7.90
2022-11-13T16:29:34.852Z,7.90
2022-11-13T16:34:42.212Z,7.90
2022-11-13T16:39:45.787Z,7.90
2022-11-13T16:44:49.861Z,8.00
2022-11-13T16:49:52.982Z,8.00
2022-11-13T16:54:55.808Z,8.00
2022-11-13T16:59:59.861Z,8.00
2022-11-13T17:05:02.674Z,8.10
2022-11-13T17:15:30.165Z,8.10
2022-11-13T17:20:32.908Z,7.90
2022-11-13T17:25:35.739Z,8.00
2022-11-13T17:30:39.850Z,8.00
2022-11-13T17:35:42.597Z,7.90
2022-11-13T17:40:45.364Z,8.10
2022-11-13T17:45:52.036Z,8.20
2022-11-13T17:50:58.567Z,8.10
2022-11-13T17:56:06.453Z,8.10
2022-11-13T18:01:14.108Z,8.10
2022-11-13T18:06:20.003Z,8.10
2022-11-13T18:11:25.464Z,8.20
2022-11-13T18:16:33.831Z,8.20
2022-11-13T18:21:37.556Z,8.30
2022-11-13T18:26:40.533Z,8.40
2022-11-13T18:31:45.039Z,8.30
2022-11-13T18:36:47.771Z,8.20
2022-11-13T18:41:50.703Z,8.30
2022-11-13T18:46:55.298Z,8.30
2022-11-13T18:51:58.029Z,8.40
2022-11-13T18:57:00.770Z,8.50
2022-11-13T19:02:05.000Z,8.60
2022-11-13T19:07:08.706Z,8.50
2022-11-13T19:12:11.519Z,8.50
2022-11-13T19:17:15.701Z,8.40
2022-11-13T19:22:18.441Z,8.30
2022-11-13T19:27:21.501Z,8.30
2022-11-13T19:32:25.641Z,8.20
2022-11-13T19:37:28.458Z,8.30
2022-11-13T19:42:31.287Z,8.20
2022-11-13T19:47:35.380Z,8.20
2022-11-13T19:52:38.134Z,8.20
2022-11-13T19:57:46.029Z,8.20
2022-11-13T20:02:50.527Z,8.20
2022-11-13T20:07:58.266Z,8.20
2022-11-13T20:13:01.097Z,8.10
2022-11-13T20:18:05.660Z,8.20
2022-11-13T20:23:08.419Z,8.20
2022-11-13T20:28:11.195Z,8.20
2022-11-13T20:33:21.262Z,8.20
2022-11-13T20:38:25.264Z,8.20
2022-11-13T20:43:28.014Z,8.20
2022-11-13T20:48:32.533Z,8.20
2022-11-13T20:53:35.736Z,8.20
2022-11-13T20:58:38.976Z,8.20
2022-11-13T21:03:44.598Z,8.10
2022-11-13T21:08:48.344Z,8.10
2022-11-13T21:13:51.226Z,8.00
2022-11-13T21:18:56.237Z,8.00
2022-11-13T21:23:59.892Z,8.00
2022-11-13T21:29:03.253Z,7.90
2022-11-13T21:34:08.099Z,7.90
2022-11-13T21:45:25.562Z,8.00
2022-11-13T21:50:32.134Z,7.90
2022-11-13T21:55:37.502Z,8.00
2022-11-13T22:00:41.384Z,8.00
2022-11-13T22:05:52.722Z,8.00
2022-11-13T22:10:55.711Z,8.20
2022-11-13T22:15:58.950Z,8.20
2022-11-13T22:21:04.857Z,8.20
2022-11-13T22:26:12.040Z,8.10
2022-11-13T22:31:21.519Z,8.10
2022-11-13T22:36:31.303Z,8.10
2022-11-13T22:41:37.548Z,8.00
2022-11-13T22:46:43.588Z,8.00
2022-11-13T22:51:48.781Z,8.00
2022-11-13T22:56:54.683Z,8.00
2022-11-13T23:01:57.587Z,8.10
2022-11-13T23:07:02.124Z,8.10
2022-11-13T23:12:06.373Z,8.00
2022-11-13T23:17:11.778Z,8.00
2022-11-13T23:22:15.971Z,8.10
2022-11-13T23:27:18.716Z,7.90
2022-11-13T23:32:21.494Z,8.00
2022-11-13T23:37:25.582Z,8.00
2022-11-13T23:42:53.396Z,8.00
2022-11-13T23:47:51.056Z,8.00
2022-11-13T23:52:55.561Z,8.00
2022-11-13T23:57:59.393Z,8.00
